sensor_id;sensor_type;location;lat;lon;timestamp;pressure;altitude;pressure_sealevel;temperature;humidity
54592;BME280;40488;48.558;18.150;2023-02-15T00:00:41;101255.69;;;0.51;78.74
54592;BME280;40488;48.558;18.150;2023-02-15T00:03:12;101253.84;;;0.49;79.22
54592;BME280;40488;48.558;18.150;2023-02-15T00:05:44;101261.38;;;0.49;79.23
54592;BME280;40488;48.558;18.150;2023-02-15T00:08:13;101257.72;;;0.44;79.21
54592;BME280;40488;48.558;18.150;2023-02-15T00:10:41;101257.13;;;0.35;79.09
54592;BME280;40488;48.558;18.150;2023-02-15T00:13:10;101256.03;;;0.31;79.31
54592;BME280;40488;48.558;18.150;2023-02-15T00:15:39;101252.38;;;0.26;79.26
54592;BME280;40488;48.558;18.150;2023-02-15T00:18:08;101266.78;;;0.29;79.11
54592;BME280;40488;48.558;18.150;2023-02-15T00:20:38;101254.22;;;0.29;79.58
54592;BME280;40488;48.558;18.150;2023-02-15T00:23:07;101265.03;;;0.28;79.60
54592;BME280;40488;48.558;18.150;2023-02-15T00:25:36;101267.25;;;0.23;79.40
54592;BME280;40488;48.558;18.150;2023-02-15T00:28:05;101266.34;;;0.23;79.93
54592;BME280;40488;48.558;18.150;2023-02-15T00:30:34;101263.28;;;0.27;79.77
54592;BME280;40488;48.558;18.150;2023-02-15T00:33:03;101256.72;;;0.29;79.96
54592;BME280;40488;48.558;18.150;2023-02-15T00:35:33;101262.50;;;0.28;80.26
54592;BME280;40488;48.558;18.150;2023-02-15T00:38:03;101262.44;;;0.26;79.90
54592;BME280;40488;48.558;18.150;2023-02-15T00:40:32;101261.13;;;0.20;79.82
54592;BME280;40488;48.558;18.150;2023-02-15T00:43:01;101259.88;;;0.13;80.11
54592;BME280;40488;48.558;18.150;2023-02-15T00:45:30;101252.84;;;0.21;80.08
54592;BME280;40488;48.558;18.150;2023-02-15T00:47:59;101252.06;;;0.22;80.19
54592;BME280;40488;48.558;18.150;2023-02-15T00:50:28;101251.75;;;0.17;79.95
54592;BME280;40488;48.558;18.150;2023-02-15T00:52:56;101253.59;;;0.07;79.81
54592;BME280;40488;48.558;18.150;2023-02-15T00:55:27;101254.25;;;0.04;79.99
54592;BME280;40488;48.558;18.150;2023-02-15T00:57:56;101251.44;;;-0.01;80.15
54592;BME280;40488;48.558;18.150;2023-02-15T01:00:25;101249.81;;;0.00;80.38
54592;BME280;40488;48.558;18.150;2023-02-15T01:02:55;101249.09;;;-0.11;80.35
54592;BME280;40488;48.558;18.150;2023-02-15T01:05:24;101240.38;;;-0.16;80.48
54592;BME280;40488;48.558;18.150;2023-02-15T01:07:53;101246.56;;;-0.11;80.15
54592;BME280;40488;48.558;18.150;2023-02-15T01:10:22;101245.59;;;-0.13;80.50
54592;BME280;40488;48.558;18.150;2023-02-15T01:12:53;101244.63;;;-0.15;80.24
54592;BME280;40488;48.558;18.150;2023-02-15T01:15:22;101236.91;;;-0.18;80.21
54592;BME280;40488;48.558;18.150;2023-02-15T01:17:52;101240.75;;;-0.23;80.10
54592;BME280;40488;48.558;18.150;2023-02-15T01:20:23;101241.09;;;-0.30;80.29
54592;BME280;40488;48.558;18.150;2023-02-15T01:22:53;101237.75;;;-0.42;79.91
54592;BME280;40488;48.558;18.150;2023-02-15T01:25:24;101243.13;;;-0.49;80.18
54592;BME280;40488;48.558;18.150;2023-02-15T01:27:56;101236.84;;;-0.55;79.98
54592;BME280;40488;48.558;18.150;2023-02-15T01:30:25;101242.91;;;-0.52;80.37
54592;BME280;40488;48.558;18.150;2023-02-15T01:32:54;101232.00;;;-0.52;80.46
54592;BME280;40488;48.558;18.150;2023-02-15T01:35:23;101231.34;;;-0.50;80.47
54592;BME280;40488;48.558;18.150;2023-02-15T01:37:54;101224.19;;;-0.57;80.49
54592;BME280;40488;48.558;18.150;2023-02-15T01:40:23;101232.06;;;-0.64;80.40
54592;BME280;40488;48.558;18.150;2023-02-15T01:42:53;101236.84;;;-0.67;80.52
54592;BME280;40488;48.558;18.150;2023-02-15T01:45:26;101237.06;;;-0.64;80.65
54592;BME280;40488;48.558;18.150;2023-02-15T01:47:59;101236.84;;;-0.67;80.65
54592;BME280;40488;48.558;18.150;2023-02-15T01:50:33;101241.00;;;-0.68;80.45
54592;BME280;40488;48.558;18.150;2023-02-15T01:53:07;101235.00;;;-0.70;80.34
54592;BME280;40488;48.558;18.150;2023-02-15T01:55:39;101243.22;;;-0.72;80.60
54592;BME280;40488;48.558;18.150;2023-02-15T01:58:11;101235.16;;;-0.80;80.35
54592;BME280;40488;48.558;18.150;2023-02-15T02:00:43;101235.03;;;-0.81;80.38
54592;BME280;40488;48.558;18.150;2023-02-15T02:03:13;101231.78;;;-0.80;80.15
54592;BME280;40488;48.558;18.150;2023-02-15T02:05:43;101231.47;;;-0.85;80.02
54592;BME280;40488;48.558;18.150;2023-02-15T02:08:12;101231.03;;;-0.91;80.24
54592;BME280;40488;48.558;18.150;2023-02-15T02:10:41;101231.91;;;-0.90;80.10
54592;BME280;40488;48.558;18.150;2023-02-15T02:13:10;101223.63;;;-0.89;80.20
54592;BME280;40488;48.558;18.150;2023-02-15T02:15:47;101212.75;;;-1.01;80.33
54592;BME280;40488;48.558;18.150;2023-02-15T02:18:30;101210.56;;;-0.97;80.28
54592;BME280;40488;48.558;18.150;2023-02-15T02:21:36;101216.47;;;-0.96;80.62
54592;BME280;40488;48.558;18.150;2023-02-15T02:24:34;101214.78;;;-0.96;80.63
54592;BME280;40488;48.558;18.150;2023-02-15T02:27:30;101210.78;;;-0.94;80.68
54592;BME280;40488;48.558;18.150;2023-02-15T02:30:21;101216.22;;;-0.99;80.68
54592;BME280;40488;48.558;18.150;2023-02-15T02:33:08;101216.56;;;-1.06;80.24
54592;BME280;40488;48.558;18.150;2023-02-15T02:35:50;101214.50;;;-1.12;80.39
54592;BME280;40488;48.558;18.150;2023-02-15T02:38:27;101214.94;;;-1.17;80.18
54592;BME280;40488;48.558;18.150;2023-02-15T02:41:07;101212.25;;;-1.20;80.58
54592;BME280;40488;48.558;18.150;2023-02-15T02:43:48;101211.91;;;-1.13;80.72
54592;BME280;40488;48.558;18.150;2023-02-15T02:46:24;101212.34;;;-1.19;80.32
54592;BME280;40488;48.558;18.150;2023-02-15T02:48:56;101214.28;;;-1.26;80.44
54592;BME280;40488;48.558;18.150;2023-02-15T02:51:25;101218.88;;;-1.21;80.16
54592;BME280;40488;48.558;18.150;2023-02-15T02:53:56;101209.94;;;-1.17;80.18
54592;BME280;40488;48.558;18.150;2023-02-15T02:56:29;101204.50;;;-1.23;79.84
54592;BME280;40488;48.558;18.150;2023-02-15T02:59:01;101201.38;;;-1.32;79.96
54592;BME280;40488;48.558;18.150;2023-02-15T03:01:40;101202.09;;;-1.33;80.26
54592;BME280;40488;48.558;18.150;2023-02-15T03:04:15;101203.88;;;-1.32;80.55
54592;BME280;40488;48.558;18.150;2023-02-15T03:06:48;101205.41;;;-1.34;80.35
54592;BME280;40488;48.558;18.150;2023-02-15T03:09:25;101208.41;;;-1.39;80.64
54592;BME280;40488;48.558;18.150;2023-02-15T03:12:03;101207.53;;;-1.39;80.76
54592;BME280;40488;48.558;18.150;2023-02-15T03:14:37;101204.72;;;-1.44;80.87
54592;BME280;40488;48.558;18.150;2023-02-15T03:17:08;101205.84;;;-1.52;80.67
54592;BME280;40488;48.558;18.150;2023-02-15T03:19:40;101209.19;;;-1.51;81.08
54592;BME280;40488;48.558;18.150;2023-02-15T03:22:13;101206.78;;;-1.38;80.95
54592;BME280;40488;48.558;18.150;2023-02-15T03:24:47;101216.38;;;-1.32;80.80
54592;BME280;40488;48.558;18.150;2023-02-15T03:27:22;101214.06;;;-1.29;80.82
54592;BME280;40488;48.558;18.150;2023-02-15T03:29:53;101208.41;;;-1.27;81.24
54592;BME280;40488;48.558;18.150;2023-02-15T03:32:26;101214.06;;;-1.29;80.97
54592;BME280;40488;48.558;18.150;2023-02-15T03:34:58;101213.66;;;-1.36;80.94
54592;BME280;40488;48.558;18.150;2023-02-15T03:37:33;101215.81;;;-1.28;81.22
54592;BME280;40488;48.558;18.150;2023-02-15T03:40:08;101208.75;;;-1.46;80.92
54592;BME280;40488;48.558;18.150;2023-02-15T03:42:58;101217.13;;;-1.45;80.99
54592;BME280;40488;48.558;18.150;2023-02-15T03:45:31;101218.03;;;-1.45;80.76
54592;BME280;40488;48.558;18.150;2023-02-15T03:48:03;101217.88;;;-1.46;80.82
54592;BME280;40488;48.558;18.150;2023-02-15T03:50:36;101205.59;;;-1.55;80.61
54592;BME280;40488;48.558;18.150;2023-02-15T03:53:19;101214.97;;;-1.52;80.88
54592;BME280;40488;48.558;18.150;2023-02-15T03:55:50;101214.41;;;-1.60;80.83
54592;BME280;40488;48.558;18.150;2023-02-15T03:58:21;101217.38;;;-1.54;80.82
54592;BME280;40488;48.558;18.150;2023-02-15T04:01:04;101215.28;;;-1.48;80.91
54592;BME280;40488;48.558;18.150;2023-02-15T04:03:53;101215.50;;;-1.45;80.77
54592;BME280;40488;48.558;18.150;2023-02-15T04:06:25;101216.50;;;-1.43;80.52
54592;BME280;40488;48.558;18.150;2023-02-15T04:08:53;101215.19;;;-1.49;80.11
54592;BME280;40488;48.558;18.150;2023-02-15T04:11:32;101208.84;;;-1.56;80.24
54592;BME280;40488;48.558;18.150;2023-02-15T04:14:01;101212.13;;;-1.57;80.24
54592;BME280;40488;48.558;18.150;2023-02-15T04:16:50;101206.03;;;-1.60;80.50
54592;BME280;40488;48.558;18.150;2023-02-15T04:19:18;101222.91;;;-1.58;79.97
54592;BME280;40488;48.558;18.150;2023-02-15T04:21:57;101215.94;;;-1.62;79.99
54592;BME280;40488;48.558;18.150;2023-02-15T04:24:35;101213.66;;;-1.59;80.40
54592;BME280;40488;48.558;18.150;2023-02-15T04:27:14;101189.81;;;-1.77;80.13
54592;BME280;40488;48.558;18.150;2023-02-15T04:29:44;101222.78;;;-1.59;80.04
54592;BME280;40488;48.558;18.150;2023-02-15T04:32:12;101223.44;;;-1.62;79.95
54592;BME280;40488;48.558;18.150;2023-02-15T04:34:41;101224.75;;;-1.67;80.18
54592;BME280;40488;48.558;18.150;2023-02-15T04:37:11;101222.56;;;-1.74;80.16
54592;BME280;40488;48.558;18.150;2023-02-15T04:39:40;101221.03;;;-1.83;80.23
54592;BME280;40488;48.558;18.150;2023-02-15T04:42:09;101216.44;;;-1.89;80.01
54592;BME280;40488;48.558;18.150;2023-02-15T04:44:38;101221.91;;;-1.83;80.40
54592;BME280;40488;48.558;18.150;2023-02-15T04:47:07;101208.41;;;-1.85;80.61
54592;BME280;40488;48.558;18.150;2023-02-15T04:49:36;101215.38;;;-1.81;80.34
54592;BME280;40488;48.558;18.150;2023-02-15T04:52:04;101212.22;;;-1.90;80.51
54592;BME280;40488;48.558;18.150;2023-02-15T04:54:35;101214.72;;;-1.90;80.91
54592;BME280;40488;48.558;18.150;2023-02-15T04:57:05;101222.22;;;-1.90;80.65
54592;BME280;40488;48.558;18.150;2023-02-15T04:59:34;101218.84;;;-1.90;80.52
54592;BME280;40488;48.558;18.150;2023-02-15T05:02:03;101221.22;;;-1.92;80.72
54592;BME280;40488;48.558;18.150;2023-02-15T05:04:32;101210.53;;;-2.01;80.75
54592;BME280;40488;48.558;18.150;2023-02-15T05:07:00;101217.06;;;-2.03;80.59
54592;BME280;40488;48.558;18.150;2023-02-15T05:09:29;101219.25;;;-1.96;80.79
54592;BME280;40488;48.558;18.150;2023-02-15T05:12:00;101212.28;;;-2.00;81.03
54592;BME280;40488;48.558;18.150;2023-02-15T05:14:29;101214.00;;;-1.99;80.57
54592;BME280;40488;48.558;18.150;2023-02-15T05:16:57;101216.41;;;-2.00;81.09
54592;BME280;40488;48.558;18.150;2023-02-15T05:19:28;101218.59;;;-2.05;80.61
54592;BME280;40488;48.558;18.150;2023-02-15T05:21:57;101216.97;;;-2.05;80.83
54592;BME280;40488;48.558;18.150;2023-02-15T05:24:26;101217.84;;;-2.04;80.86
54592;BME280;40488;48.558;18.150;2023-02-15T05:27:08;101216.81;;;-2.06;80.56
54592;BME280;40488;48.558;18.150;2023-02-15T05:29:48;101217.91;;;-2.14;80.61
54592;BME280;40488;48.558;18.150;2023-02-15T05:32:17;101233.78;;;-2.14;80.73
54592;BME280;40488;48.558;18.150;2023-02-15T05:34:46;101228.66;;;-2.15;80.72
54592;BME280;40488;48.558;18.150;2023-02-15T05:37:15;101232.91;;;-2.14;80.72
54592;BME280;40488;48.558;18.150;2023-02-15T05:39:44;101240.53;;;-2.13;80.57
54592;BME280;40488;48.558;18.150;2023-02-15T05:42:14;101237.13;;;-2.13;80.42
54592;BME280;40488;48.558;18.150;2023-02-15T05:44:44;101239.63;;;-2.13;80.67
54592;BME280;40488;48.558;18.150;2023-02-15T05:47:13;101244.63;;;-2.13;80.53
54592;BME280;40488;48.558;18.150;2023-02-15T05:49:41;101251.31;;;-2.14;80.68
54592;BME280;40488;48.558;18.150;2023-02-15T05:52:10;101251.81;;;-2.18;80.44
54592;BME280;40488;48.558;18.150;2023-02-15T05:54:39;101260.81;;;-2.20;80.50
54592;BME280;40488;48.558;18.150;2023-02-15T05:57:08;101259.22;;;-2.19;79.91
54592;BME280;40488;48.558;18.150;2023-02-15T05:59:38;101274.94;;;-2.20;80.38
54592;BME280;40488;48.558;18.150;2023-02-15T06:02:07;101269.66;;;-2.13;80.65
54592;BME280;40488;48.558;18.150;2023-02-15T06:04:36;101276.81;;;-2.18;79.96
54592;BME280;40488;48.558;18.150;2023-02-15T06:07:05;101274.44;;;-2.16;79.85
54592;BME280;40488;48.558;18.150;2023-02-15T06:09:34;101280.44;;;-2.14;80.13
54592;BME280;40488;48.558;18.150;2023-02-15T06:12:03;101270.94;;;-2.18;80.46
54592;BME280;40488;48.558;18.150;2023-02-15T06:14:31;101272.69;;;-2.17;80.47
54592;BME280;40488;48.558;18.150;2023-02-15T06:17:01;101282.38;;;-2.10;79.96
54592;BME280;40488;48.558;18.150;2023-02-15T06:19:30;101289.34;;;-2.06;80.62
54592;BME280;40488;48.558;18.150;2023-02-15T06:21:59;101281.97;;;-1.71;80.88
54592;BME280;40488;48.558;18.150;2023-02-15T06:24:28;101289.88;;;-1.20;80.51
54592;BME280;40488;48.558;18.150;2023-02-15T06:26:57;101294.66;;;-0.77;80.25
54592;BME280;40488;48.558;18.150;2023-02-15T06:29:25;101293.50;;;-0.46;79.98
54592;BME280;40488;48.558;18.150;2023-02-15T06:31:54;101300.84;;;-0.36;79.39
54592;BME280;40488;48.558;18.150;2023-02-15T06:34:25;101294.97;;;-0.25;78.93
54592;BME280;40488;48.558;18.150;2023-02-15T06:36:53;101304.28;;;-0.11;78.38
54592;BME280;40488;48.558;18.150;2023-02-15T06:39:22;101301.41;;;-0.04;77.71
54592;BME280;40488;48.558;18.150;2023-02-15T06:41:51;101297.88;;;-0.19;77.44
54592;BME280;40488;48.558;18.150;2023-02-15T06:44:20;101302.34;;;-0.15;77.72
54592;BME280;40488;48.558;18.150;2023-02-15T06:46:49;101300.13;;;-0.10;77.63
54592;BME280;40488;48.558;18.150;2023-02-15T06:49:18;101296.19;;;-0.07;78.04
54592;BME280;40488;48.558;18.150;2023-02-15T06:51:48;101290.19;;;-0.09;78.12
54592;BME280;40488;48.558;18.150;2023-02-15T06:54:17;101288.28;;;0.00;77.99
54592;BME280;40488;48.558;18.150;2023-02-15T06:56:46;101283.69;;;0.07;78.13
54592;BME280;40488;48.558;18.150;2023-02-15T06:59:14;101284.09;;;0.13;78.22
54592;BME280;40488;48.558;18.150;2023-02-15T07:01:43;101286.44;;;0.23;78.54
54592;BME280;40488;48.558;18.150;2023-02-15T07:04:12;101272.38;;;0.38;78.36
54592;BME280;40488;48.558;18.150;2023-02-15T07:06:41;101276.44;;;0.49;78.84
54592;BME280;40488;48.558;18.150;2023-02-15T07:09:11;101275.53;;;0.60;78.65
54592;BME280;40488;48.558;18.150;2023-02-15T07:11:41;101278.69;;;0.71;78.87
54592;BME280;40488;48.558;18.150;2023-02-15T07:14:20;101277.56;;;0.79;78.56
54592;BME280;40488;48.558;18.150;2023-02-15T07:16:49;101269.13;;;0.91;78.16
54592;BME280;40488;48.558;18.150;2023-02-15T07:19:18;101276.47;;;1.01;78.60
54592;BME280;40488;48.558;18.150;2023-02-15T07:21:46;101272.72;;;1.08;77.80
54592;BME280;40488;48.558;18.150;2023-02-15T07:24:16;101269.13;;;1.17;78.04
54592;BME280;40488;48.558;18.150;2023-02-15T07:26:45;101272.06;;;1.10;78.39
54592;BME280;40488;48.558;18.150;2023-02-15T07:29:14;101273.16;;;1.28;78.00
54592;BME280;40488;48.558;18.150;2023-02-15T07:31:43;101272.75;;;1.49;78.60
54592;BME280;40488;48.558;18.150;2023-02-15T07:34:12;101272.63;;;1.60;78.56
54592;BME280;40488;48.558;18.150;2023-02-15T07:36:43;101272.66;;;1.75;78.65
54592;BME280;40488;48.558;18.150;2023-02-15T07:39:13;101275.50;;;1.94;78.11
54592;BME280;40488;48.558;18.150;2023-02-15T07:41:43;101272.72;;;2.04;78.29
54592;BME280;40488;48.558;18.150;2023-02-15T07:44:12;101273.63;;;2.19;77.48
54592;BME280;40488;48.558;18.150;2023-02-15T07:46:41;101267.22;;;2.39;77.71
54592;BME280;40488;48.558;18.150;2023-02-15T07:49:10;101269.66;;;2.52;77.48
54592;BME280;40488;48.558;18.150;2023-02-15T07:51:39;101269.38;;;2.62;77.22
54592;BME280;40488;48.558;18.150;2023-02-15T07:54:10;101258.50;;;2.78;76.86
54592;BME280;40488;48.558;18.150;2023-02-15T07:56:39;101253.09;;;2.86;77.10
54592;BME280;40488;48.558;18.150;2023-02-15T07:59:10;101254.41;;;2.94;77.07
54592;BME280;40488;48.558;18.150;2023-02-15T08:01:39;101246.66;;;2.91;75.70
54592;BME280;40488;48.558;18.150;2023-02-15T08:04:08;101246.84;;;2.80;76.23
54592;BME280;40488;48.558;18.150;2023-02-15T08:06:38;101248.06;;;2.71;75.93
54592;BME280;40488;48.558;18.150;2023-02-15T08:09:08;101239.91;;;2.76;75.22
54592;BME280;40488;48.558;18.150;2023-02-15T08:11:38;101246.34;;;2.70;75.78
54592;BME280;40488;48.558;18.150;2023-02-15T08:14:11;101238.09;;;2.73;75.83
54592;BME280;40488;48.558;18.150;2023-02-15T08:16:41;101240.06;;;2.79;75.34
54592;BME280;40488;48.558;18.150;2023-02-15T08:19:12;101241.16;;;2.98;75.09
54592;BME280;40488;48.558;18.150;2023-02-15T08:21:44;101238.59;;;3.13;75.05
54592;BME280;40488;48.558;18.150;2023-02-15T08:24:15;101234.22;;;3.25;74.92
54592;BME280;40488;48.558;18.150;2023-02-15T08:26:44;101232.75;;;3.45;75.18
54592;BME280;40488;48.558;18.150;2023-02-15T08:29:17;101233.44;;;3.42;74.36
54592;BME280;40488;48.558;18.150;2023-02-15T08:31:47;101230.94;;;3.58;74.68
54592;BME280;40488;48.558;18.150;2023-02-15T08:34:17;101234.41;;;3.60;73.92
54592;BME280;40488;48.558;18.150;2023-02-15T08:36:47;101239.59;;;3.63;73.87
54592;BME280;40488;48.558;18.150;2023-02-15T08:39:16;101229.84;;;3.69;73.88
54592;BME280;40488;48.558;18.150;2023-02-15T08:41:46;101237.56;;;3.88;74.38
54592;BME280;40488;48.558;18.150;2023-02-15T08:44:18;101226.78;;;4.08;73.41
54592;BME280;40488;48.558;18.150;2023-02-15T08:46:48;101234.19;;;4.22;73.84
54592;BME280;40488;48.558;18.150;2023-02-15T08:49:18;101227.13;;;4.32;73.16
54592;BME280;40488;48.558;18.150;2023-02-15T08:51:49;101232.78;;;4.27;73.06
54592;BME280;40488;48.558;18.150;2023-02-15T08:54:20;101225.13;;;4.43;72.81
54592;BME280;40488;48.558;18.150;2023-02-15T08:56:49;101226.38;;;4.51;72.09
54592;BME280;40488;48.558;18.150;2023-02-15T08:59:21;101225.78;;;4.56;72.19
54592;BME280;40488;48.558;18.150;2023-02-15T09:01:52;101228.19;;;4.71;71.86
54592;BME280;40488;48.558;18.150;2023-02-15T09:04:21;101219.88;;;4.91;71.53
54592;BME280;40488;48.558;18.150;2023-02-15T09:06:50;101233.16;;;4.87;71.15
54592;BME280;40488;48.558;18.150;2023-02-15T09:09:19;101226.38;;;5.04;71.29
54592;BME280;40488;48.558;18.150;2023-02-15T09:11:50;101231.38;;;5.21;70.64
54592;BME280;40488;48.558;18.150;2023-02-15T09:14:27;101231.19;;;5.17;70.63
54592;BME280;40488;48.558;18.150;2023-02-15T09:16:56;101224.63;;;5.03;70.35
54592;BME280;40488;48.558;18.150;2023-02-15T09:19:25;101233.09;;;5.03;70.50
54592;BME280;40488;48.558;18.150;2023-02-15T09:21:53;101228.03;;;5.03;70.07
54592;BME280;40488;48.558;18.150;2023-02-15T09:24:22;101232.06;;;5.17;70.98
54592;BME280;40488;48.558;18.150;2023-02-15T09:26:51;101238.63;;;5.14;71.00
54592;BME280;40488;48.558;18.150;2023-02-15T09:29:20;101229.41;;;5.33;70.84
54592;BME280;40488;48.558;18.150;2023-02-15T09:31:51;101228.09;;;5.41;70.90
54592;BME280;40488;48.558;18.150;2023-02-15T09:34:22;101233.16;;;5.41;70.15
54592;BME280;40488;48.558;18.150;2023-02-15T09:36:51;101232.69;;;5.50;70.81
54592;BME280;40488;48.558;18.150;2023-02-15T09:39:22;101215.31;;;5.58;70.00
54592;BME280;40488;48.558;18.150;2023-02-15T09:42:22;101221.97;;;5.56;70.19
54592;BME280;40488;48.558;18.150;2023-02-15T09:45:05;101223.69;;;5.57;70.18
54592;BME280;40488;48.558;18.150;2023-02-15T09:48:03;101218.72;;;5.77;70.47
54592;BME280;40488;48.558;18.150;2023-02-15T09:50:46;101218.53;;;5.92;69.96
54592;BME280;40488;48.558;18.150;2023-02-15T09:53:44;101216.25;;;5.98;69.70
54592;BME280;40488;48.558;18.150;2023-02-15T09:56:24;101210.13;;;5.93;69.61
54592;BME280;40488;48.558;18.150;2023-02-15T09:59:04;101215.47;;;5.99;69.70
54592;BME280;40488;48.558;18.150;2023-02-15T10:01:47;101219.56;;;6.16;69.71
54592;BME280;40488;48.558;18.150;2023-02-15T10:04:34;101209.78;;;6.25;69.19
54592;BME280;40488;48.558;18.150;2023-02-15T10:07:18;101212.16;;;6.41;69.06
54592;BME280;40488;48.558;18.150;2023-02-15T10:10:02;101211.28;;;6.41;69.00
54592;BME280;40488;48.558;18.150;2023-02-15T10:12:45;101217.72;;;6.53;69.10
54592;BME280;40488;48.558;18.150;2023-02-15T10:15:36;101218.81;;;6.60;68.50
54592;BME280;40488;48.558;18.150;2023-02-15T10:18:22;101206.91;;;6.80;68.75
54592;BME280;40488;48.558;18.150;2023-02-15T10:21:02;101210.97;;;6.97;69.14
54592;BME280;40488;48.558;18.150;2023-02-15T10:23:59;101202.38;;;7.15;68.35
54592;BME280;40488;48.558;18.150;2023-02-15T10:26:37;101202.19;;;7.33;68.23
54592;BME280;40488;48.558;18.150;2023-02-15T10:29:12;101198.72;;;7.31;67.79
54592;BME280;40488;48.558;18.150;2023-02-15T10:31:48;101187.13;;;7.61;68.28
54592;BME280;40488;48.558;18.150;2023-02-15T10:34:19;101191.34;;;7.84;67.90
54592;BME280;40488;48.558;18.150;2023-02-15T10:37:17;101187.81;;;7.81;66.79
54592;BME280;40488;48.558;18.150;2023-02-15T10:40:00;101175.25;;;7.85;67.01
54592;BME280;40488;48.558;18.150;2023-02-15T10:42:42;101180.66;;;7.94;66.54
54592;BME280;40488;48.558;18.150;2023-02-15T10:45:23;101180.22;;;8.06;66.45
54592;BME280;40488;48.558;18.150;2023-02-15T10:48:21;101184.63;;;8.11;65.83
54592;BME280;40488;48.558;18.150;2023-02-15T10:50:52;101179.47;;;8.08;65.34
54592;BME280;40488;48.558;18.150;2023-02-15T10:56:20;101170.47;;;7.94;66.04
54592;BME280;40488;48.558;18.150;2023-02-15T11:01:53;101171.31;;;8.19;65.09
54592;BME280;40488;48.558;18.150;2023-02-15T11:04:39;101171.66;;;8.28;65.62
54592;BME280;40488;48.558;18.150;2023-02-15T11:07:16;101166.56;;;8.28;65.17
54592;BME280;40488;48.558;18.150;2023-02-15T11:09:49;101168.50;;;8.35;64.83
54592;BME280;40488;48.558;18.150;2023-02-15T11:12:24;101174.19;;;8.28;64.35
54592;BME280;40488;48.558;18.150;2023-02-15T11:15:00;101160.06;;;8.12;64.71
54592;BME280;40488;48.558;18.150;2023-02-15T11:17:36;101156.72;;;8.13;65.04
54592;BME280;40488;48.558;18.150;2023-02-15T11:20:15;101151.72;;;8.16;64.31
54592;BME280;40488;48.558;18.150;2023-02-15T11:22:48;101140.63;;;8.14;64.72
54592;BME280;40488;48.558;18.150;2023-02-15T11:25:24;101141.41;;;8.37;65.18
54592;BME280;40488;48.558;18.150;2023-02-15T11:27:55;101141.22;;;8.31;64.06
54592;BME280;40488;48.558;18.150;2023-02-15T11:30:29;101145.22;;;8.24;64.11
54592;BME280;40488;48.558;18.150;2023-02-15T11:33:04;101143.13;;;8.38;64.46
54592;BME280;40488;48.558;18.150;2023-02-15T11:35:38;101135.81;;;8.47;63.95
54592;BME280;40488;48.558;18.150;2023-02-15T11:38:13;101134.69;;;8.39;63.18
54592;BME280;40488;48.558;18.150;2023-02-15T11:40:47;101140.41;;;8.32;63.87
54592;BME280;40488;48.558;18.150;2023-02-15T11:43:23;101134.06;;;8.46;64.11
54592;BME280;40488;48.558;18.150;2023-02-15T11:45:55;101133.06;;;8.69;64.35
54592;BME280;40488;48.558;18.150;2023-02-15T11:48:24;101125.38;;;8.66;64.03
54592;BME280;40488;48.558;18.150;2023-02-15T11:50:53;101129.13;;;8.50;64.64
54592;BME280;40488;48.558;18.150;2023-02-15T11:53:22;101133.97;;;8.71;63.65
54592;BME280;40488;48.558;18.150;2023-02-15T11:55:52;101114.16;;;8.89;63.57
54592;BME280;40488;48.558;18.150;2023-02-15T11:58:29;101113.66;;;9.01;63.38
54592;BME280;40488;48.558;18.150;2023-02-15T12:01:06;101107.63;;;8.97;63.50
54592;BME280;40488;48.558;18.150;2023-02-15T12:03:44;101120.53;;;8.75;62.98
54592;BME280;40488;48.558;18.150;2023-02-15T12:06:24;101116.16;;;8.99;62.62
54592;BME280;40488;48.558;18.150;2023-02-15T12:09:03;101099.59;;;9.13;62.04
54592;BME280;40488;48.558;18.150;2023-02-15T12:11:36;101110.59;;;9.12;61.38
54592;BME280;40488;48.558;18.150;2023-02-15T12:14:08;101112.09;;;9.06;61.39
54592;BME280;40488;48.558;18.150;2023-02-15T12:16:43;101101.56;;;8.94;61.66
54592;BME280;40488;48.558;18.150;2023-02-15T12:19:28;101104.56;;;8.81;62.58
54592;BME280;40488;48.558;18.150;2023-02-15T12:21:58;101106.69;;;8.95;62.22
54592;BME280;40488;48.558;18.150;2023-02-15T12:24:30;101092.59;;;9.06;61.47
54592;BME280;40488;48.558;18.150;2023-02-15T12:27:03;101095.25;;;9.09;62.69
54592;BME280;40488;48.558;18.150;2023-02-15T12:29:39;101092.28;;;9.25;61.65
54592;BME280;40488;48.558;18.150;2023-02-15T12:32:15;101089.56;;;9.19;62.14
54592;BME280;40488;48.558;18.150;2023-02-15T12:34:47;101083.78;;;9.25;62.04
54592;BME280;40488;48.558;18.150;2023-02-15T12:37:20;101086.00;;;9.14;61.85
54592;BME280;40488;48.558;18.150;2023-02-15T12:39:55;101079.47;;;9.22;61.20
54592;BME280;40488;48.558;18.150;2023-02-15T12:42:27;101053.66;;;9.10;61.51
54592;BME280;40488;48.558;18.150;2023-02-15T12:44:59;101071.78;;;9.54;61.03
54592;BME280;40488;48.558;18.150;2023-02-15T12:47:30;101073.44;;;9.52;61.02
54592;BME280;40488;48.558;18.150;2023-02-15T12:50:07;101068.38;;;9.20;61.59
54592;BME280;40488;48.558;18.150;2023-02-15T12:52:38;101060.81;;;8.92;61.21
54592;BME280;40488;48.558;18.150;2023-02-15T12:55:18;101059.16;;;8.94;61.28
54592;BME280;40488;48.558;18.150;2023-02-15T12:57:47;101055.41;;;8.82;61.81
54592;BME280;40488;48.558;18.150;2023-02-15T13:00:29;101052.88;;;8.83;62.15
54592;BME280;40488;48.558;18.150;2023-02-15T13:03:00;101054.75;;;8.89;61.90
54592;BME280;40488;48.558;18.150;2023-02-15T13:05:35;101044.69;;;8.93;61.63
54592;BME280;40488;48.558;18.150;2023-02-15T13:08:12;101053.16;;;8.92;61.45
54592;BME280;40488;48.558;18.150;2023-02-15T13:10:53;101045.00;;;8.74;61.64
54592;BME280;40488;48.558;18.150;2023-02-15T13:13:25;101049.09;;;8.69;61.89
54592;BME280;40488;48.558;18.150;2023-02-15T13:15:59;101048.19;;;8.67;61.54
54592;BME280;40488;48.558;18.150;2023-02-15T13:18:32;101042.63;;;8.80;62.90
54592;BME280;40488;48.558;18.150;2023-02-15T13:21:09;101048.13;;;8.95;62.31